Time;durP1;ratioP1;P1;durP2;ratioP2;P2;SDS_P1;SDS_P2;PMS_P1;PMS_P2;Temp;Humidity;BMP_temperature;BMP_pressure;BME280_temperature;BME280_humidity;BME280_pressure;Samples;Min_cycle;Max_cycle;Signal;HPM_P1;HPM_P2
2022/11/04 00:01:03;;;;;;;9.35;4.45;;;;;;;;;;5087369;28;20375;-76
2022/11/04 00:03:29;;;;;;;9.37;4.50;;;;;;;;;;5089154;28;20045;-76
2022/11/04 00:05:55;;;;;;;11.13;4.85;;;;;;;;;;5084664;28;20043;-76
2022/11/04 00:08:24;;;;;;;7.03;4.22;;;;;;;;;;5094035;28;20028;-77
2022/11/04 00:13:45;;;;;;;17.05;4.93;;;;;;;;;;5073244;28;20139;-76
2022/11/04 00:18:56;;;;;;;11.60;6.07;;;;;;;;;;5073681;28;20035;-77
2022/11/04 00:29:39;;;;;;;13.25;6.45;;;;;;;;;;5073457;28;20048;-77
2022/11/04 00:34:50;;;;;;;11.57;5.78;;;;;;;;;;5073235;28;20036;-77
2022/11/04 00:37:16;;;;;;;9.25;5.78;;;;;;;;;;5072711;28;20033;-76
2022/11/04 00:39:42;;;;;;;12.20;5.85;;;;;;;;;;5072920;28;20028;-76
2022/11/04 00:42:08;;;;;;;9.07;5.32;;;;;;;;;;5072535;28;20033;-76
2022/11/04 00:44:34;;;;;;;8.07;4.28;;;;;;;;;;5082858;28;20032;-77
2022/11/04 00:47:00;;;;;;;14.02;6.55;;;;;;;;;;5093163;28;20102;-76
2022/11/04 00:49:26;;;;;;;12.18;6.72;;;;;;;;;;5083119;28;20028;-77
2022/11/04 00:51:52;;;;;;;13.55;6.13;;;;;;;;;;5072345;28;20044;-76
2022/11/04 00:54:18;;;;;;;15.55;7.65;;;;;;;;;;5074914;28;20051;-77
2022/11/04 00:56:44;;;;;;;16.88;7.80;;;;;;;;;;5082765;28;20089;-76
2022/11/04 00:59:11;;;;;;;11.77;6.90;;;;;;;;;;5075780;28;20024;-76
2022/11/04 01:01:37;;;;;;;5.93;4.25;;;;;;;;;;5088237;28;20058;-77
2022/11/04 01:04:03;;;;;;;8.63;3.40;;;;;;;;;;5083604;28;20489;-77
2022/11/04 01:06:29;;;;;;;5.00;2.30;;;;;;;;;;5088692;28;20042;-76
2022/11/04 01:08:55;;;;;;;5.20;2.00;;;;;;;;;;5092803;28;20048;-77
2022/11/04 01:11:22;;;;;;;5.15;1.70;;;;;;;;;;5092862;28;20382;-76
2022/11/04 01:13:50;;;;;;;3.35;1.50;;;;;;;;;;5074950;28;20673;-77
2022/11/04 01:16:16;;;;;;;3.35;1.33;;;;;;;;;;5070922;28;20024;-76
2022/11/04 01:18:42;;;;;;;6.07;1.48;;;;;;;;;;5072040;28;20094;-77
2022/11/04 01:21:10;;;;;;;4.65;1.58;;;;;;;;;;5071885;28;20100;-77
2022/11/04 01:23:36;;;;;;;2.03;1.45;;;;;;;;;;5071834;28;20049;-76
2022/11/04 01:26:06;;;;;;;4.60;1.15;;;;;;;;;;5071867;28;20025;-76
2022/11/04 01:28:32;;;;;;;2.00;1.10;;;;;;;;;;5071901;28;20094;-77
2022/11/04 01:30:58;;;;;;;1.27;0.80;;;;;;;;;;5071852;28;20032;-77
2022/11/04 01:33:24;;;;;;;2.42;1.20;;;;;;;;;;5071869;28;20024;-76
2022/11/04 01:35:50;;;;;;;3.50;0.82;;;;;;;;;;5071988;28;20103;-76
2022/11/04 01:38:17;;;;;;;5.40;1.33;;;;;;;;;;5071698;28;20530;-76
2022/11/04 01:40:43;;;;;;;2.17;0.90;;;;;;;;;;5071917;28;20506;-76
2022/11/04 01:43:19;;;;;;;2.72;1.15;;;;;;;;;;5071163;28;20495;-77
2022/11/04 01:45:51;;;;;;;3.25;1.27;;;;;;;;;;5071707;28;20037;-77
2022/11/04 01:48:21;;;;;;;5.10;1.23;;;;;;;;;;5071627;28;20025;-77
2022/11/04 01:50:48;;;;;;;2.60;1.20;;;;;;;;;;5071534;28;20494;-77
2022/11/04 01:53:18;;;;;;;4.32;1.35;;;;;;;;;;5071441;28;20451;-77
2022/11/04 01:55:51;;;;;;;7.03;1.55;;;;;;;;;;5076897;28;20489;-77
2022/11/04 01:58:18;;;;;;;5.78;1.80;;;;;;;;;;5083481;28;20116;-77
2022/11/04 02:00:44;;;;;;;9.10;1.88;;;;;;;;;;5081467;28;20028;-76
2022/11/04 02:03:21;;;;;;;4.30;1.88;;;;;;;;;;5089685;28;20035;-76
2022/11/04 02:05:47;;;;;;;4.95;1.90;;;;;;;;;;5081394;28;20027;-76
2022/11/04 02:08:14;;;;;;;5.55;2.47;;;;;;;;;;5089947;28;20543;-77
2022/11/04 02:10:41;;;;;;;6.50;2.00;;;;;;;;;;5091874;28;20028;-76
2022/11/04 02:13:08;;;;;;;7.47;2.10;;;;;;;;;;5079336;28;20056;-77
2022/11/04 02:15:45;;;;;;;5.00;2.00;;;;;;;;;;5071512;28;20150;-77
2022/11/04 02:18:21;;;;;;;3.90;1.80;;;;;;;;;;5071311;28;20137;-76
2022/11/04 02:20:50;;;;;;;4.65;2.10;;;;;;;;;;5071497;28;20089;-76
2022/11/04 02:23:28;;;;;;;14.23;2.60;;;;;;;;;;5071103;28;20028;-76
2022/11/04 02:26:00;;;;;;;5.18;2.50;;;;;;;;;;5071375;28;20363;-76
2022/11/04 02:28:33;;;;;;;7.88;2.67;;;;;;;;;;5071223;28;20035;-76
2022/11/04 02:31:21;;;;;;;5.75;2.50;;;;;;;;;;5069988;28;20505;-76
2022/11/04 02:33:50;;;;;;;4.90;2.35;;;;;;;;;;5071216;28;20043;-76
2022/11/04 02:36:16;;;;;;;7.05;2.60;;;;;;;;;;5070969;28;20463;-76
2022/11/04 02:38:42;;;;;;;5.45;2.38;;;;;;;;;;5069720;28;20029;-75
2022/11/04 02:41:11;;;;;;;3.58;2.55;;;;;;;;;;5071229;28;20017;-76
2022/11/04 02:43:56;;;;;;;5.53;2.92;;;;;;;;;;5072986;28;20026;-76
2022/11/04 02:46:34;;;;;;;5.68;2.97;;;;;;;;;;5089995;28;20121;-76
2022/11/04 02:49:08;;;;;;;9.55;3.72;;;;;;;;;;5089701;28;20111;-76
2022/11/04 02:51:47;;;;;;;5.70;3.40;;;;;;;;;;5091490;28;20050;-76
2022/11/04 02:54:12;;;;;;;8.75;3.30;;;;;;;;;;5086730;28;20039;-76
2022/11/04 02:56:43;;;;;;;6.75;3.72;;;;;;;;;;5084714;28;20451;-76
2022/11/04 02:59:13;;;;;;;8.73;4.55;;;;;;;;;;5074897;28;20433;-76
2022/11/04 03:01:41;;;;;;;8.32;4.32;;;;;;;;;;5092836;28;20024;-76
2022/11/04 03:04:15;;;;;;;7.43;3.75;;;;;;;;;;5084696;28;20033;-76
2022/11/04 03:06:43;;;;;;;6.82;4.68;;;;;;;;;;5092877;28;20103;-76
2022/11/04 03:09:11;;;;;;;12.55;4.80;;;;;;;;;;5089653;28;20028;-76
2022/11/04 03:11:40;;;;;;;6.32;4.30;;;;;;;;;;5074375;28;20036;-76
2022/11/04 03:14:10;;;;;;;8.32;4.45;;;;;;;;;;5074127;28;20520;-76
2022/11/04 03:16:56;;;;;;;7.55;4.60;;;;;;;;;;5074315;28;20103;-76
2022/11/04 03:19:39;;;;;;;11.07;5.10;;;;;;;;;;5073736;28;20443;-76
2022/11/04 03:22:26;;;;;;;9.48;5.15;;;;;;;;;;5085331;28;20039;-76
2022/11/04 03:24:52;;;;;;;12.20;6.57;;;;;;;;;;5093951;28;20032;-76
2022/11/04 03:27:31;;;;;;;13.40;6.30;;;;;;;;;;5092895;28;20047;-76
2022/11/04 03:29:57;;;;;;;14.98;7.13;;;;;;;;;;5094212;28;20024;-76
2022/11/04 03:32:26;;;;;;;15.38;7.30;;;;;;;;;;5094175;28;20481;-76
2022/11/04 03:34:52;;;;;;;15.95;7.57;;;;;;;;;;5093832;28;20107;-76
2022/11/04 03:37:18;;;;;;;14.93;7.75;;;;;;;;;;5094019;28;20035;-76
2022/11/04 03:39:44;;;;;;;16.38;8.35;;;;;;;;;;5093989;28;20027;-76
2022/11/04 03:42:21;;;;;;;18.80;8.85;;;;;;;;;;5095260;28;20032;-76
2022/11/04 03:44:48;;;;;;;17.00;9.15;;;;;;;;;;5082006;28;20066;-76
2022/11/04 03:47:14;;;;;;;18.50;10.38;;;;;;;;;;5073164;28;20038;-76
2022/11/04 03:49:40;;;;;;;23.27;10.52;;;;;;;;;;5086616;28;20020;-76
2022/11/04 03:52:06;;;;;;;20.23;11.07;;;;;;;;;;5093411;28;20035;-76
2022/11/04 03:54:34;;;;;;;19.05;9.77;;;;;;;;;;5086563;28;20107;-75
2022/11/04 03:57:16;;;;;;;26.13;12.63;;;;;;;;;;5086748;28;20024;-74
2022/11/04 03:59:42;;;;;;;25.55;14.23;;;;;;;;;;5076803;28;20035;-75
2022/11/04 04:02:14;;;;;;;25.48;14.70;;;;;;;;;;5093134;28;20028;-75
2022/11/04 04:04:58;;;;;;;31.52;14.95;;;;;;;;;;5079642;28;20115;-76
2022/11/04 04:07:34;;;;;;;32.10;16.08;;;;;;;;;;5094470;28;20055;-76
2022/11/04 04:10:37;;;;;;;34.35;17.67;;;;;;;;;;5080876;28;20031;-76
2022/11/04 04:12:51;;;;;;;40.92;19.70;;;;;;;;;;5072909;28;20106;-75
2022/11/04 04:15:19;;;;;;;41.75;20.25;;;;;;;;;;5073780;28;20040;-76
2022/11/04 04:17:54;;;;;;;47.42;22.95;;;;;;;;;;5074179;28;20025;-76
2022/11/04 04:20:21;;;;;;;45.90;22.33;;;;;;;;;;5073087;28;20117;-76
2022/11/04 04:28:43;;;;;;;59.75;25.83;;;;;;;;;;5073355;28;20510;-76
2022/11/04 04:31:10;;;;;;;49.22;23.98;;;;;;;;;;5073043;28;20532;-76
2022/11/04 04:33:36;;;;;;;54.45;24.35;;;;;;;;;;5072832;28;20031;-76
2022/11/04 04:36:04;;;;;;;51.45;24.13;;;;;;;;;;5072907;28;20013;-76
2022/11/04 04:46:51;;;;;;;42.33;22.48;;;;;;;;;;5092867;28;20093;-75
2022/11/04 04:49:17;;;;;;;43.53;22.52;;;;;;;;;;5093026;28;20103;-76
2022/11/04 04:51:47;;;;;;;42.40;21.83;;;;;;;;;;5092959;28;20024;-76
2022/11/04 04:54:13;;;;;;;46.42;22.30;;;;;;;;;;5086623;28;20035;-76
2022/11/04 04:56:39;;;;;;;43.58;21.48;;;;;;;;;;5081813;28;20100;-76
2022/11/04 04:59:05;;;;;;;42.33;23.05;;;;;;;;;;5076489;28;20033;-76
2022/11/04 05:01:32;;;;;;;51.25;23.85;;;;;;;;;;5089597;28;20035;-76
2022/11/04 05:03:58;;;;;;;40.45;20.85;;;;;;;;;;5082975;28;20028;-76
2022/11/04 05:06:24;;;;;;;46.05;22.00;;;;;;;;;;5088768;28;20088;-76
2022/11/04 05:08:50;;;;;;;40.03;21.45;;;;;;;;;;5089663;28;20053;-76
2022/11/04 05:11:16;;;;;;;42.33;20.95;;;;;;;;;;5071907;28;20028;-76
2022/11/04 05:13:42;;;;;;;42.42;21.92;;;;;;;;;;5070796;28;20055;-76
2022/11/04 05:16:09;;;;;;;40.80;19.95;;;;;;;;;;5070564;28;20036;-76
2022/11/04 05:18:36;;;;;;;31.65;18.38;;;;;;;;;;5071645;28;20025;-76
2022/11/04 05:21:06;;;;;;;37.65;18.55;;;;;;;;;;5071803;28;20028;-76
2022/11/04 05:23:32;;;;;;;37.53;18.48;;;;;;;;;;5087684;28;20035;-76
2022/11/04 05:25:58;;;;;;;34.53;17.30;;;;;;;;;;5087177;28;20519;-76
2022/11/04 05:28:24;;;;;;;37.92;16.95;;;;;;;;;;5087515;28;20036;-76
2022/11/04 05:30:50;;;;;;;30.65;16.13;;;;;;;;;;5070386;28;20039;-76
2022/11/04 05:33:16;;;;;;;33.47;16.48;;;;;;;;;;5071743;28;20104;-76
2022/11/04 05:35:42;;;;;;;30.88;16.42;;;;;;;;;;5071948;28;20051;-76
2022/11/04 05:38:08;;;;;;;35.20;16.35;;;;;;;;;;5071609;28;20056;-76
2022/11/04 05:40:35;;;;;;;28.40;16.02;;;;;;;;;;5071825;28;20025;-76
2022/11/04 05:43:01;;;;;;;29.77;15.48;;;;;;;;;;5071509;28;20032;-76
2022/11/04 05:45:27;;;;;;;34.47;15.00;;;;;;;;;;5070450;28;20449;-76
2022/11/04 05:47:57;;;;;;;29.98;15.70;;;;;;;;;;5070289;28;20041;-76
2022/11/04 05:50:23;;;;;;;28.80;14.65;;;;;;;;;;5071664;28;20485;-76
2022/11/04 05:52:49;;;;;;;30.40;14.07;;;;;;;;;;5071238;28;20390;-75
2022/11/04 05:55:15;;;;;;;25.02;14.13;;;;;;;;;;5074486;28;20040;-76
2022/11/04 05:57:41;;;;;;;31.30;14.07;;;;;;;;;;5086562;28;20379;-76
2022/11/04 06:00:08;;;;;;;30.63;14.55;;;;;;;;;;5077172;28;20833;-76
2022/11/04 06:02:34;;;;;;;22.20;12.57;;;;;;;;;;5089509;28;20103;-76
2022/11/04 06:05:00;;;;;;;23.92;13.07;;;;;;;;;;5079955;28;20039;-76
2022/11/04 06:07:26;;;;;;;25.00;13.27;;;;;;;;;;5091642;28;20035;-76
2022/11/04 06:09:52;;;;;;;27.15;14.23;;;;;;;;;;5078537;28;20028;-76
2022/11/04 06:12:18;;;;;;;31.70;14.07;;;;;;;;;;5070762;28;20534;-76
2022/11/04 06:14:44;;;;;;;28.05;14.10;;;;;;;;;;5071091;28;20070;-76
2022/11/04 06:17:17;;;;;;;28.90;14.82;;;;;;;;;;5071003;28;20029;-75
2022/11/04 06:19:43;;;;;;;33.25;14.75;;;;;;;;;;5071338;28;20023;-75
2022/11/04 06:22:11;;;;;;;32.85;13.73;;;;;;;;;;5070679;28;20063;-76
2022/11/04 06:24:37;;;;;;;32.47;13.73;;;;;;;;;;5071233;28;20029;-76
2022/11/04 06:27:03;;;;;;;28.60;12.35;;;;;;;;;;5070841;28;20029;-75
2022/11/04 06:29:29;;;;;;;25.70;11.73;;;;;;;;;;5074045;28;20025;-76
2022/11/04 06:31:55;;;;;;;24.98;12.25;;;;;;;;;;5075178;28;20074;-76
2022/11/04 06:34:21;;;;;;;23.02;10.50;;;;;;;;;;5075122;28;20047;-76
2022/11/04 06:36:48;;;;;;;26.23;11.40;;;;;;;;;;5074823;28;20020;-76
2022/11/04 06:39:14;;;;;;;28.65;12.23;;;;;;;;;;5074898;28;20039;-76
2022/11/04 06:41:40;;;;;;;29.23;12.13;;;;;;;;;;5075023;28;20025;-76
2022/11/04 06:44:06;;;;;;;28.95;12.05;;;;;;;;;;5080714;28;20028;-76
2022/11/04 06:46:39;;;;;;;29.83;11.77;;;;;;;;;;5095154;28;20482;-75
2022/11/04 06:49:06;;;;;;;24.15;10.50;;;;;;;;;;5094022;28;20428;-76
2022/11/04 06:51:33;;;;;;;27.33;11.88;;;;;;;;;;5093144;28;20068;-76
2022/11/04 06:53:59;;;;;;;23.55;10.80;;;;;;;;;;5092598;28;20472;-76
2022/11/04 06:56:25;;;;;;;23.77;11.65;;;;;;;;;;5094345;28;20135;-76
2022/11/04 06:58:52;;;;;;;33.63;11.40;;;;;;;;;;5094754;28;20032;-76
2022/11/04 07:01:19;;;;;;;23.05;10.23;;;;;;;;;;5093583;28;20032;-76
2022/11/04 07:03:49;;;;;;;27.90;11.32;;;;;;;;;;5090976;28;20077;-75
2022/11/04 07:06:15;;;;;;;23.80;10.27;;;;;;;;;;5085815;28;20102;-76
2022/11/04 07:08:41;;;;;;;23.23;10.00;;;;;;;;;;5096323;28;20036;-76
2022/11/04 07:11:07;;;;;;;22.13;10.02;;;;;;;;;;5095467;28;20020;-75
2022/11/04 07:13:33;;;;;;;21.73;9.48;;;;;;;;;;5096203;28;20456;-76
2022/11/04 07:15:59;;;;;;;24.38;9.70;;;;;;;;;;5096883;28;20016;-76
2022/11/04 07:18:25;;;;;;;28.92;9.70;;;;;;;;;;5099303;28;20020;-76
2022/11/04 07:20:51;;;;;;;20.90;9.35;;;;;;;;;;5094567;28;20044;-76
2022/11/04 07:23:18;;;;;;;25.70;8.65;;;;;;;;;;5092664;28;20055;-76
2022/11/04 07:25:44;;;;;;;20.23;8.88;;;;;;;;;;5095246;28;20025;-76
2022/11/04 07:28:10;;;;;;;14.82;7.60;;;;;;;;;;5092153;28;20031;-76
2022/11/04 07:30:36;;;;;;;18.90;8.48;;;;;;;;;;5096322;28;20021;-76
2022/11/04 07:33:02;;;;;;;24.25;8.73;;;;;;;;;;5096222;28;20032;-76
2022/11/04 07:35:28;;;;;;;22.27;8.93;;;;;;;;;;5096007;28;20423;-76
2022/11/04 07:37:54;;;;;;;26.38;9.68;;;;;;;;;;5102318;28;20028;-76
2022/11/04 07:40:20;;;;;;;18.15;8.57;;;;;;;;;;5090273;28;20460;-76
2022/11/04 07:42:47;;;;;;;21.00;8.35;;;;;;;;;;5079815;28;20048;-76
2022/11/04 07:45:13;;;;;;;18.98;8.18;;;;;;;;;;5083323;28;20016;-76
2022/11/04 07:47:39;;;;;;;19.95;8.75;;;;;;;;;;5085415;28;20027;-76
2022/11/04 07:50:05;;;;;;;14.93;7.57;;;;;;;;;;5078097;28;20490;-77
2022/11/04 07:52:31;;;;;;;19.80;7.75;;;;;;;;;;5077069;28;20036;-77
2022/11/04 07:54:57;;;;;;;16.45;6.63;;;;;;;;;;5098483;28;20082;-77
2022/11/04 07:57:23;;;;;;;15.35;7.60;;;;;;;;;;5096844;28;20101;-77
2022/11/04 07:59:49;;;;;;;19.85;8.00;;;;;;;;;;5098625;28;20028;-77
2022/11/04 08:02:15;;;;;;;21.33;7.20;;;;;;;;;;5104654;28;20061;-79
2022/11/04 08:04:41;;;;;;;18.67;7.18;;;;;;;;;;5085471;28;20016;-79
2022/11/04 08:07:10;;;;;;;17.80;7.07;;;;;;;;;;5081781;28;20024;-78
2022/11/04 08:09:37;;;;;;;14.60;6.90;;;;;;;;;;5095117;28;20122;-78
2022/11/04 08:12:04;;;;;;;17.95;7.03;;;;;;;;;;5093739;28;20036;-78
2022/11/04 08:14:30;;;;;;;21.08;6.60;;;;;;;;;;5093834;28;20027;-78
2022/11/04 08:16:56;;;;;;;20.27;6.97;;;;;;;;;;5093755;28;20031;-79
2022/11/04 08:19:22;;;;;;;17.60;6.57;;;;;;;;;;5092799;28;20020;-78
2022/11/04 08:21:48;;;;;;;17.27;6.68;;;;;;;;;;5093270;28;20028;-77
2022/11/04 08:24:15;;;;;;;15.00;6.30;;;;;;;;;;5093127;28;20035;-77
2022/11/04 08:26:41;;;;;;;18.80;6.78;;;;;;;;;;5093734;28;20036;-78
2022/11/04 08:29:07;;;;;;;17.50;6.55;;;;;;;;;;5094176;28;20024;-77
2022/11/04 08:31:34;;;;;;;19.30;6.95;;;;;;;;;;5093879;28;20066;-78
2022/11/04 08:34:00;;;;;;;21.17;6.90;;;;;;;;;;5093406;28;20028;-77
2022/11/04 08:36:28;;;;;;;23.52;7.25;;;;;;;;;;5095398;28;20067;-78
2022/11/04 08:38:54;;;;;;;19.63;7.55;;;;;;;;;;5092163;28;20103;-78
2022/11/04 08:41:22;;;;;;;17.10;6.93;;;;;;;;;;5091412;28;20412;-78
2022/11/04 08:43:48;;;;;;;21.35;6.70;;;;;;;;;;5093331;28;20087;-78
2022/11/04 08:46:14;;;;;;;19.45;5.75;;;;;;;;;;5093440;28;20028;-79
2022/11/04 08:48:41;;;;;;;17.35;7.00;;;;;;;;;;5087035;28;20040;-78
2022/11/04 08:51:11;;;;;;;14.68;5.35;;;;;;;;;;5073356;28;20036;-78
2022/11/04 08:53:37;;;;;;;19.15;6.00;;;;;;;;;;5072092;28;20044;-79
2022/11/04 08:56:14;;;;;;;14.60;6.28;;;;;;;;;;5091064;28;20532;-76
2022/11/04 08:58:40;;;;;;;12.80;6.30;;;;;;;;;;5104909;28;20106;-76
2022/11/04 09:01:06;;;;;;;12.93;5.82;;;;;;;;;;5113331;28;20496;-76
2022/11/04 09:03:33;;;;;;;17.65;6.72;;;;;;;;;;5094364;28;20070;-76
2022/11/04 09:05:59;;;;;;;18.90;6.82;;;;;;;;;;5078540;28;20421;-77
2022/11/04 09:08:25;;;;;;;26.05;6.97;;;;;;;;;;5075051;28;20571;-76
2022/11/04 09:10:51;;;;;;;21.42;6.55;;;;;;;;;;5092112;28;20354;-76
2022/11/04 09:13:17;;;;;;;19.17;7.10;;;;;;;;;;5091379;28;20052;-76
2022/11/04 09:15:44;;;;;;;20.58;7.30;;;;;;;;;;5092354;28;20020;-76
2022/11/04 09:18:10;;;;;;;18.17;7.05;;;;;;;;;;5092909;28;20045;-76
2022/11/04 09:20:40;;;;;;;19.85;6.82;;;;;;;;;;5097989;28;20024;-76
2022/11/04 09:23:06;;;;;;;26.63;8.00;;;;;;;;;;5094855;28;20023;-76
2022/11/04 09:25:32;;;;;;;18.02;7.70;;;;;;;;;;5111927;28;20047;-77
2022/11/04 09:27:58;;;;;;;32.90;10.20;;;;;;;;;;5100568;28;20028;-77
2022/11/04 09:30:25;;;;;;;19.55;9.77;;;;;;;;;;5094510;28;20037;-76
2022/11/04 09:32:51;;;;;;;25.77;10.35;;;;;;;;;;5097779;28;20043;-76
2022/11/04 09:35:17;;;;;;;24.40;9.98;;;;;;;;;;5100304;28;20016;-76
2022/11/04 09:37:43;;;;;;;22.63;10.27;;;;;;;;;;5090986;28;20119;-76
2022/11/04 09:40:14;;;;;;;26.38;10.80;;;;;;;;;;5096569;28;20052;-76
2022/11/04 09:42:57;;;;;;;23.35;9.80;;;;;;;;;;5092358;28;20036;-76
2022/11/04 09:45:27;;;;;;;22.92;10.20;;;;;;;;;;5101791;28;20028;-76
2022/11/04 09:47:58;;;;;;;20.45;10.10;;;;;;;;;;5097592;28;20046;-76
2022/11/04 09:50:25;;;;;;;24.70;11.30;;;;;;;;;;5093855;28;20097;-76
2022/11/04 09:52:55;;;;;;;25.55;10.50;;;;;;;;;;5108491;28;20383;-76
2022/11/04 09:55:24;;;;;;;20.55;10.70;;;;;;;;;;5082035;28;20020;-76
2022/11/04 09:57:57;;;;;;;25.13;10.75;;;;;;;;;;5112993;28;20020;-76
2022/11/04 10:00:23;;;;;;;27.77;10.70;;;;;;;;;;5103709;28;20032;-76
2022/11/04 10:03:08;;;;;;;26.58;10.35;;;;;;;;;;5093292;28;20028;-76
2022/11/04 10:05:41;;;;;;;29.13;10.70;;;;;;;;;;5089438;28;20096;-76
2022/11/04 10:08:22;;;;;;;22.38;10.15;;;;;;;;;;5092545;28;20153;-76
2022/11/04 10:10:48;;;;;;;25.25;11.15;;;;;;;;;;5088394;28;20090;-76
2022/11/04 10:13:25;;;;;;;25.75;12.57;;;;;;;;;;5104584;28;20373;-76
2022/11/04 10:16:02;;;;;;;25.15;10.88;;;;;;;;;;5078960;28;20072;-76
2022/11/04 10:18:46;;;;;;;26.30;11.70;;;;;;;;;;5071946;28;20536;-76
2022/11/04 10:21:15;;;;;;;21.83;12.25;;;;;;;;;;5091370;28;20485;-76
2022/11/04 10:24:06;;;;;;;27.05;11.75;;;;;;;;;;5091944;28;20028;-76
2022/11/04 10:26:46;;;;;;;34.63;13.23;;;;;;;;;;5088285;28;20025;-76
2022/11/04 10:29:36;;;;;;;26.88;12.20;;;;;;;;;;5088738;28;20220;-76
2022/11/04 10:32:04;;;;;;;28.30;12.95;;;;;;;;;;5065421;28;20039;-76
2022/11/04 10:34:34;;;;;;;28.58;11.60;;;;;;;;;;5099603;28;20035;-76
2022/11/04 10:37:01;;;;;;;25.90;11.98;;;;;;;;;;5100822;28;20038;-76
2022/11/04 10:39:29;;;;;;;20.98;11.48;;;;;;;;;;5096502;28;20382;-76
2022/11/04 10:41:57;;;;;;;28.55;12.27;;;;;;;;;;5087019;28;20029;-76
2022/11/04 10:44:27;;;;;;;27.60;12.10;;;;;;;;;;5082613;28;20101;-76
2022/11/04 10:46:58;;;;;;;20.77;12.15;;;;;;;;;;5086762;28;20561;-76
2022/11/04 10:49:42;;;;;;;25.00;12.75;;;;;;;;;;5078811;28;20089;-76
2022/11/04 10:52:09;;;;;;;25.70;11.77;;;;;;;;;;5093141;28;20040;-76
2022/11/04 10:54:53;;;;;;;24.00;10.93;;;;;;;;;;5089718;28;20359;-76
2022/11/04 10:57:26;;;;;;;26.05;10.95;;;;;;;;;;5085685;28;20028;-76
2022/11/04 11:00:15;;;;;;;32.15;12.43;;;;;;;;;;5070698;28;20108;-76
2022/11/04 11:02:41;;;;;;;23.98;11.25;;;;;;;;;;5071531;28;20544;-77
2022/11/04 11:05:19;;;;;;;28.13;12.23;;;;;;;;;;5071891;28;20055;-76
2022/11/04 11:07:46;;;;;;;26.73;13.48;;;;;;;;;;5089426;28;20040;-76
2022/11/04 11:10:20;;;;;;;30.95;14.38;;;;;;;;;;5088826;28;20482;-76
2022/11/04 11:13:01;;;;;;;31.92;14.35;;;;;;;;;;5087285;28;20051;-76
2022/11/04 11:15:31;;;;;;;32.08;14.30;;;;;;;;;;5083613;28;20016;-76
2022/11/04 11:18:16;;;;;;;28.70;13.43;;;;;;;;;;5093883;28;20023;-76
2022/11/04 11:20:48;;;;;;;25.88;12.77;;;;;;;;;;5090939;28;20116;-76
2022/11/04 11:23:47;;;;;;;20.85;11.40;;;;;;;;;;5086845;28;20027;-77
2022/11/04 11:26:18;;;;;;;24.15;12.13;;;;;;;;;;5057434;28;20044;-76
2022/11/04 11:28:48;;;;;;;24.27;12.70;;;;;;;;;;5090353;28;20024;-77
2022/11/04 11:31:22;;;;;;;23.50;12.70;;;;;;;;;;5087258;28;20032;-76
2022/11/04 11:33:56;;;;;;;26.38;12.45;;;;;;;;;;5085515;28;20077;-76
2022/11/04 11:36:25;;;;;;;22.45;12.50;;;;;;;;;;5085047;28;20039;-76
2022/11/04 11:38:56;;;;;;;27.20;13.23;;;;;;;;;;5086731;28;20544;-76
2022/11/04 11:41:30;;;;;;;22.77;12.68;;;;;;;;;;5079408;28;20110;-76
2022/11/04 11:43:57;;;;;;;25.40;13.45;;;;;;;;;;5090802;28;20020;-76
2022/11/04 11:46:28;;;;;;;19.88;11.80;;;;;;;;;;5092378;28;20017;-76
2022/11/04 11:49:01;;;;;;;26.30;13.35;;;;;;;;;;5092396;28;20119;-76
2022/11/04 11:51:30;;;;;;;22.23;12.10;;;;;;;;;;5083548;28;20257;-76
2022/11/04 11:54:16;;;;;;;30.48;13.23;;;;;;;;;;5084195;28;20031;-76
2022/11/04 11:56:53;;;;;;;28.95;13.65;;;;;;;;;;5092452;28;20024;-76
2022/11/04 11:59:26;;;;;;;23.48;11.80;;;;;;;;;;5092384;28;20089;-76
2022/11/04 12:01:52;;;;;;;;;;;;;;;;;;5093756;28;20026;-76
2022/11/04 12:04:19;;;;;;;25.83;14.45;;;;;;;;;;5088087;28;20014;-76
2022/11/04 12:06:47;;;;;;;29.23;15.27;;;;;;;;;;5075931;28;20020;-76
2022/11/04 12:09:22;;;;;;;24.90;14.50;;;;;;;;;;5092669;28;20512;-76
2022/11/04 12:11:51;;;;;;;25.80;13.57;;;;;;;;;;5082195;28;20413;-76
2022/11/04 12:14:23;;;;;;;25.77;14.57;;;;;;;;;;5084269;28;20097;-76
2022/11/04 12:17:07;;;;;;;22.40;12.98;;;;;;;;;;5090084;28;20031;-76
2022/11/04 12:19:54;;;;;;;21.95;12.73;;;;;;;;;;5093324;28;20407;-76
2022/11/04 12:22:20;;;;;;;20.95;12.15;;;;;;;;;;5087657;28;20034;-78
2022/11/04 12:24:46;;;;;;;25.33;12.55;;;;;;;;;;5093045;28;20018;-78
2022/11/04 12:27:31;;;;;;;19.63;12.93;;;;;;;;;;5091123;28;20084;-78
2022/11/04 12:30:05;;;;;;;26.90;12.82;;;;;;;;;;5092656;28;20476;-78
2022/11/04 12:32:50;;;;;;;20.52;12.30;;;;;;;;;;5093096;28;20017;-78
2022/11/04 12:35:35;;;;;;;21.85;12.93;;;;;;;;;;5091377;28;20346;-78
2022/11/04 12:38:19;;;;;;;20.42;11.95;;;;;;;;;;5091079;28;20020;-78
2022/11/04 12:40:51;;;;;;;20.92;11.35;;;;;;;;;;5093034;28;20024;-77
2022/11/04 12:43:17;;;;;;;20.38;10.88;;;;;;;;;;5092957;28;20044;-77
2022/11/04 12:45:46;;;;;;;18.73;10.73;;;;;;;;;;5073242;28;20082;-77
2022/11/04 12:48:36;;;;;;;21.90;10.93;;;;;;;;;;5071249;28;20024;-78
2022/11/04 12:51:15;;;;;;;18.98;10.82;;;;;;;;;;5053246;28;20243;-77
2022/11/04 12:53:45;;;;;;;17.27;10.43;;;;;;;;;;5074702;28;20028;-77
2022/11/04 12:56:13;;;;;;;18.15;10.98;;;;;;;;;;5083920;28;20039;-78
2022/11/04 12:58:39;;;;;;;27.23;12.15;;;;;;;;;;5086521;28;20496;-78
2022/11/04 13:01:08;;;;;;;19.20;11.07;;;;;;;;;;5075561;28;20024;-77
2022/11/04 13:03:38;;;;;;;18.42;11.88;;;;;;;;;;5075614;28;20482;-77
2022/11/04 13:06:15;;;;;;;18.52;11.98;;;;;;;;;;5080804;28;20142;-78
2022/11/04 13:08:53;;;;;;;20.05;12.35;;;;;;;;;;5076038;28;20028;-78
2022/11/04 13:11:24;;;;;;;21.80;12.57;;;;;;;;;;5092487;28;20043;-78
2022/11/04 13:14:00;;;;;;;26.45;13.10;;;;;;;;;;5071691;28;20036;-78
2022/11/04 13:16:27;;;;;;;21.80;13.60;;;;;;;;;;5072301;28;20025;-78
2022/11/04 13:18:53;;;;;;;19.50;12.20;;;;;;;;;;5072763;28;20020;-78
2022/11/04 13:21:22;;;;;;;24.77;13.07;;;;;;;;;;5072094;28;20119;-78
2022/11/04 13:23:51;;;;;;;18.98;11.95;;;;;;;;;;5087541;28;20025;-78
2022/11/04 13:26:17;;;;;;;22.08;12.95;;;;;;;;;;5071860;28;20051;-78
2022/11/04 13:28:44;;;;;;;22.10;12.48;;;;;;;;;;5087552;28;20115;-78
2022/11/04 13:31:26;;;;;;;31.27;13.45;;;;;;;;;;5072195;28;20406;-78
2022/11/04 13:34:11;;;;;;;22.70;14.83;;;;;;;;;;5072043;28;20067;-78
2022/11/04 13:36:40;;;;;;;22.55;13.82;;;;;;;;;;5072171;28;20039;-78
2022/11/04 13:39:20;;;;;;;18.10;13.10;;;;;;;;;;5071287;28;20104;-78
2022/11/04 13:42:05;;;;;;;20.85;12.23;;;;;;;;;;5072159;28;20050;-78
2022/11/04 13:44:36;;;;;;;22.02;12.98;;;;;;;;;;5079908;28;20114;-78
2022/11/04 13:47:05;;;;;;;19.17;12.00;;;;;;;;;;5097944;28;20055;-78
2022/11/04 13:49:33;;;;;;;17.38;10.57;;;;;;;;;;5094827;28;20031;-78
2022/11/04 13:52:14;;;;;;;23.48;12.70;;;;;;;;;;5082123;28;20035;-78
2022/11/04 13:54:58;;;;;;;18.10;10.77;;;;;;;;;;5081743;28;20041;-78
2022/11/04 13:57:28;;;;;;;22.05;11.95;;;;;;;;;;5081456;28;20025;-78
2022/11/04 14:00:12;;;;;;;21.50;10.90;;;;;;;;;;5078733;28;20035;-78
2022/11/04 14:02:38;;;;;;;21.08;11.15;;;;;;;;;;5074844;28;20516;-78
2022/11/04 14:05:23;;;;;;;18.10;9.85;;;;;;;;;;5085708;28;20020;-78
2022/11/04 14:08:01;;;;;;;12.18;7.30;;;;;;;;;;5084574;28;20425;-78
2022/11/04 14:10:42;;;;;;;5.88;2.35;;;;;;;;;;5081017;28;20074;-78
2022/11/04 14:13:27;;;;;;;5.57;1.13;;;;;;;;;;5090534;28;20035;-79
2022/11/04 14:16:05;;;;;;;6.57;1.08;;;;;;;;;;5089412;28;20039;-78
2022/11/04 14:18:32;;;;;;;1.92;0.85;;;;;;;;;;5092316;28;20351;-79
2022/11/04 14:21:18;;;;;;;2.72;0.88;;;;;;;;;;5076630;28;20024;-79
2022/11/04 14:23:49;;;;;;;3.63;1.35;;;;;;;;;;5092376;28;20039;-79
2022/11/04 14:26:20;;;;;;;4.75;1.67;;;;;;;;;;5090522;28;20031;-80
2022/11/04 14:28:48;;;;;;;6.68;2.67;;;;;;;;;;5092240;28;20074;-79
2022/11/04 14:31:15;;;;;;;5.38;1.85;;;;;;;;;;5091711;28;20028;-79
2022/11/04 14:33:50;;;;;;;8.07;2.78;;;;;;;;;;5091890;28;20020;-79
2022/11/04 14:36:19;;;;;;;5.82;2.40;;;;;;;;;;5092077;28;20020;-79
2022/11/04 14:39:24;;;;;;;7.47;2.58;;;;;;;;;;5091941;28;20024;-79
2022/11/04 14:41:57;;;;;;;14.82;3.10;;;;;;;;;;5022412;28;20036;-79
2022/11/04 14:44:26;;;;;;;10.65;4.13;;;;;;;;;;5028888;28;20452;-79
2022/11/04 14:46:55;;;;;;;9.15;3.58;;;;;;;;;;5055061;28;20114;-79
2022/11/04 14:49:30;;;;;;;11.25;3.30;;;;;;;;;;5087348;28;20024;-79
2022/11/04 14:51:57;;;;;;;9.07;4.15;;;;;;;;;;5095364;28;20419;-78
2022/11/04 14:54:26;;;;;;;11.50;3.85;;;;;;;;;;5093335;28;20035;-78
2022/11/04 14:56:52;;;;;;;7.50;3.63;;;;;;;;;;5095511;28;20031;-79
2022/11/04 14:59:23;;;;;;;4.40;2.20;;;;;;;;;;5094434;28;20035;-79
2022/11/04 15:01:51;;;;;;;4.63;2.15;;;;;;;;;;5095448;28;20486;-79
2022/11/04 15:04:25;;;;;;;10.18;1.77;;;;;;;;;;5093366;28;20038;-79
2022/11/04 15:06:58;;;;;;;4.65;1.65;;;;;;;;;;5089947;28;20051;-79
2022/11/04 15:09:29;;;;;;;7.97;1.92;;;;;;;;;;5093582;28;20104;-79
2022/11/04 15:14:55;;;;;;;6.53;1.75;;;;;;;;;;5080481;28;20060;-79
2022/11/04 15:17:23;;;;;;;8.68;1.73;;;;;;;;;;5097749;28;20109;-79